sensor_id;sensor_type;location;lat;lon;timestamp;pressure;altitude;pressure_sealevel;temperature;humidity
78144;BME280;67394;52.522;13.622;2023-09-30T00:01:30;101341.03;;;16.44;100.00
78144;BME280;67394;52.522;13.622;2023-09-30T00:03:57;101345.31;;;16.48;100.00
78144;BME280;67394;52.522;13.622;2023-09-30T00:06:24;101353.19;;;16.41;100.00
78144;BME280;67394;52.522;13.622;2023-09-30T00:08:51;101359.19;;;16.43;100.00
78144;BME280;67394;52.522;13.622;2023-09-30T00:11:18;101368.72;;;16.41;100.00
78144;BME280;67394;52.522;13.622;2023-09-30T00:13:45;101366.16;;;16.38;100.00
78144;BME280;67394;52.522;13.622;2023-09-30T00:16:11;101367.00;;;16.40;100.00
78144;BME280;67394;52.522;13.622;2023-09-30T00:18:38;101373.97;;;16.32;100.00
78144;BME280;67394;52.522;13.622;2023-09-30T00:21:04;101377.41;;;16.34;100.00
78144;BME280;67394;52.522;13.622;2023-09-30T00:23:31;101393.03;;;16.28;100.00
78144;BME280;67394;52.522;13.622;2023-09-30T00:25:57;101393.97;;;16.21;100.00
78144;BME280;67394;52.522;13.622;2023-09-30T00:28:24;101391.47;;;16.11;100.00
78144;BME280;67394;52.522;13.622;2023-09-30T00:30:51;101401.03;;;16.08;100.00
78144;BME280;67394;52.522;13.622;2023-09-30T00:33:17;101405.44;;;15.97;100.00
78144;BME280;67394;52.522;13.622;2023-09-30T00:35:44;101410.56;;;16.01;100.00
78144;BME280;67394;52.522;13.622;2023-09-30T00:38:10;101414.94;;;15.98;100.00
78144;BME280;67394;52.522;13.622;2023-09-30T00:40:38;101415.84;;;15.89;100.00
78144;BME280;67394;52.522;13.622;2023-09-30T00:43:05;101421.09;;;15.83;100.00
78144;BME280;67394;52.522;13.622;2023-09-30T00:45:32;101421.19;;;15.74;100.00
78144;BME280;67394;52.522;13.622;2023-09-30T00:47:59;101412.56;;;15.75;100.00
78144;BME280;67394;52.522;13.622;2023-09-30T00:50:26;101417.81;;;15.67;100.00
78144;BME280;67394;52.522;13.622;2023-09-30T00:52:53;101419.50;;;15.70;100.00
78144;BME280;67394;52.522;13.622;2023-09-30T00:55:21;101427.34;;;15.61;100.00
78144;BME280;67394;52.522;13.622;2023-09-30T00:57:48;101423.03;;;15.60;100.00
78144;BME280;67394;52.522;13.622;2023-09-30T01:00:17;101438.66;;;15.45;100.00
78144;BME280;67394;52.522;13.622;2023-09-30T01:02:45;101440.44;;;15.35;100.00
78144;BME280;67394;52.522;13.622;2023-09-30T01:05:12;101437.06;;;15.25;100.00
78144;BME280;67394;52.522;13.622;2023-09-30T01:07:39;101448.28;;;15.20;100.00
78144;BME280;67394;52.522;13.622;2023-09-30T01:10:06;101450.09;;;15.07;100.00
78144;BME280;67394;52.522;13.622;2023-09-30T01:12:32;101458.75;;;14.98;100.00
78144;BME280;67394;52.522;13.622;2023-09-30T01:14:59;101463.91;;;14.94;100.00
78144;BME280;67394;52.522;13.622;2023-09-30T01:17:26;101461.38;;;14.86;100.00
78144;BME280;67394;52.522;13.622;2023-09-30T01:19:53;101470.03;;;14.78;100.00
78144;BME280;67394;52.522;13.622;2023-09-30T01:22:19;101472.66;;;14.72;99.28
78144;BME280;67394;52.522;13.622;2023-09-30T01:24:46;101472.72;;;14.59;100.00
78144;BME280;67394;52.522;13.622;2023-09-30T01:27:12;101480.44;;;14.56;100.00
78144;BME280;67394;52.522;13.622;2023-09-30T01:29:39;101488.19;;;14.53;99.95
78144;BME280;67394;52.522;13.622;2023-09-30T01:32:06;101489.09;;;14.49;100.00
78144;BME280;67394;52.522;13.622;2023-09-30T01:34:32;101490.81;;;14.46;99.99
78144;BME280;67394;52.522;13.622;2023-09-30T01:36:59;101505.41;;;14.36;99.71
78144;BME280;67394;52.522;13.622;2023-09-30T01:39:25;101501.13;;;14.34;99.75
78144;BME280;67394;52.522;13.622;2023-09-30T01:41:53;101501.16;;;14.29;99.68
78144;BME280;67394;52.522;13.622;2023-09-30T01:44:20;101507.16;;;14.25;100.00
78144;BME280;67394;52.522;13.622;2023-09-30T01:46:47;101501.13;;;14.20;99.84
78144;BME280;67394;52.522;13.622;2023-09-30T01:49:14;101508.91;;;14.18;99.82
78144;BME280;67394;52.522;13.622;2023-09-30T01:51:40;101513.19;;;14.15;99.77
78144;BME280;67394;52.522;13.622;2023-09-30T01:54:07;101529.53;;;14.05;99.89
78144;BME280;67394;52.522;13.622;2023-09-30T01:56:35;101523.53;;;13.95;100.00
78144;BME280;67394;52.522;13.622;2023-09-30T01:59:01;101526.94;;;13.89;100.00
78144;BME280;67394;52.522;13.622;2023-09-30T02:01:28;101522.66;;;13.91;100.00
78144;BME280;67394;52.522;13.622;2023-09-30T02:03:54;101526.09;;;13.87;100.00
78144;BME280;67394;52.522;13.622;2023-09-30T02:06:21;101531.22;;;13.78;100.00
78144;BME280;67394;52.522;13.622;2023-09-30T02:08:48;101534.69;;;13.73;100.00
78144;BME280;67394;52.522;13.622;2023-09-30T02:11:14;101544.97;;;13.71;100.00
78144;BME280;67394;52.522;13.622;2023-09-30T02:13:41;101539.81;;;13.68;100.00
78144;BME280;67394;52.522;13.622;2023-09-30T02:16:11;101544.13;;;13.62;100.00
78144;BME280;67394;52.522;13.622;2023-09-30T02:18:38;101549.25;;;13.60;100.00
78144;BME280;67394;52.522;13.622;2023-09-30T02:21:05;101554.41;;;13.62;100.00
78144;BME280;67394;52.522;13.622;2023-09-30T02:23:32;101553.53;;;13.58;100.00
78144;BME280;67394;52.522;13.622;2023-09-30T02:25:58;101559.59;;;13.65;100.00
78144;BME280;67394;52.522;13.622;2023-09-30T02:28:25;101558.72;;;13.61;100.00
78144;BME280;67394;52.522;13.622;2023-09-30T02:30:51;101555.25;;;13.56;100.00
78144;BME280;67394;52.522;13.622;2023-09-30T02:33:19;101561.25;;;13.49;100.00
78144;BME280;67394;52.522;13.622;2023-09-30T02:35:45;101562.13;;;13.49;100.00
78144;BME280;67394;52.522;13.622;2023-09-30T02:38:12;101558.69;;;13.49;100.00
78144;BME280;67394;52.522;13.622;2023-09-30T02:40:39;101573.25;;;13.41;100.00
78144;BME280;67394;52.522;13.622;2023-09-30T02:43:05;101572.38;;;13.37;100.00
78144;BME280;67394;52.522;13.622;2023-09-30T02:45:32;101577.53;;;13.33;100.00
78144;BME280;67394;52.522;13.622;2023-09-30T02:47:59;101574.09;;;13.31;100.00
78144;BME280;67394;52.522;13.622;2023-09-30T02:50:25;101581.81;;;13.32;100.00
78144;BME280;67394;52.522;13.622;2023-09-30T02:52:52;101581.81;;;13.31;100.00
78144;BME280;67394;52.522;13.622;2023-09-30T02:55:18;101580.09;;;13.36;100.00
78144;BME280;67394;52.522;13.622;2023-09-30T02:57:45;101589.53;;;13.31;100.00
78144;BME280;67394;52.522;13.622;2023-09-30T03:00:12;101589.50;;;13.25;100.00
78144;BME280;67394;52.522;13.622;2023-09-30T03:02:38;101600.66;;;13.19;100.00
78144;BME280;67394;52.522;13.622;2023-09-30T03:05:05;101603.25;;;13.21;100.00
78144;BME280;67394;52.522;13.622;2023-09-30T03:07:32;101612.66;;;13.15;100.00
78144;BME280;67394;52.522;13.622;2023-09-30T03:09:59;101616.94;;;13.18;100.00
78144;BME280;67394;52.522;13.622;2023-09-30T03:12:25;101605.81;;;13.19;100.00
78144;BME280;67394;52.522;13.622;2023-09-30T03:14:52;101609.22;;;13.15;100.00
78144;BME280;67394;52.522;13.622;2023-09-30T03:17:18;101605.75;;;13.10;100.00
78144;BME280;67394;52.522;13.622;2023-09-30T03:19:45;101609.19;;;13.13;100.00
78144;BME280;67394;52.522;13.622;2023-09-30T03:22:12;101614.28;;;13.07;100.00
78144;BME280;67394;52.522;13.622;2023-09-30T03:24:39;101616.03;;;13.10;100.00
78144;BME280;67394;52.522;13.622;2023-09-30T03:27:06;101624.56;;;13.01;100.00
78144;BME280;67394;52.522;13.622;2023-09-30T03:29:36;101621.13;;;12.98;100.00
78144;BME280;67394;52.522;13.622;2023-09-30T03:32:02;101620.25;;;12.96;100.00
78144;BME280;67394;52.522;13.622;2023-09-30T03:34:29;101617.66;;;12.96;100.00
78144;BME280;67394;52.522;13.622;2023-09-30T03:36:55;101623.66;;;12.93;100.00
78144;BME280;67394;52.522;13.622;2023-09-30T03:39:22;101614.22;;;12.92;100.00
78144;BME280;67394;52.522;13.622;2023-09-30T03:41:48;101620.25;;;12.99;100.00
78144;BME280;67394;52.522;13.622;2023-09-30T03:44:15;101623.66;;;12.96;100.00
78144;BME280;67394;52.522;13.622;2023-09-30T03:46:42;101622.78;;;12.94;100.00
78144;BME280;67394;52.522;13.622;2023-09-30T03:49:09;101622.00;;;13.00;100.00
78144;BME280;67394;52.522;13.622;2023-09-30T03:51:36;101621.09;;;12.90;100.00
78144;BME280;67394;52.522;13.622;2023-09-30T03:54:03;101629.59;;;12.84;100.00
78144;BME280;67394;52.522;13.622;2023-09-30T03:56:29;101623.63;;;12.87;100.00
78144;BME280;67394;52.522;13.622;2023-09-30T03:58:56;101628.78;;;12.93;100.00
78144;BME280;67394;52.522;13.622;2023-09-30T04:01:22;101628.75;;;12.84;100.00
78144;BME280;67394;52.522;13.622;2023-09-30T04:03:49;101635.63;;;12.87;100.00
78144;BME280;67394;52.522;13.622;2023-09-30T04:06:16;101627.91;;;12.85;100.00
78144;BME280;67394;52.522;13.622;2023-09-30T04:08:42;101639.03;;;12.82;100.00
78144;BME280;67394;52.522;13.622;2023-09-30T04:11:09;101641.56;;;12.75;100.00
78144;BME280;67394;52.522;13.622;2023-09-30T04:13:35;101644.13;;;12.75;100.00
78144;BME280;67394;52.522;13.622;2023-09-30T04:16:02;101643.28;;;12.77;100.00
78144;BME280;67394;52.522;13.622;2023-09-30T04:18:28;101643.28;;;12.77;100.00
78144;BME280;67394;52.522;13.622;2023-09-30T04:20:55;101643.25;;;12.70;100.00
78144;BME280;67394;52.522;13.622;2023-09-30T04:23:22;101654.38;;;12.67;100.00
78144;BME280;67394;52.522;13.622;2023-09-30T04:25:51;101655.25;;;12.72;100.00
78144;BME280;67394;52.522;13.622;2023-09-30T04:28:17;101655.25;;;12.68;100.00
78144;BME280;67394;52.522;13.622;2023-09-30T04:30:44;101658.63;;;12.64;100.00
78144;BME280;67394;52.522;13.622;2023-09-30T04:33:11;101669.78;;;12.64;100.00
78144;BME280;67394;52.522;13.622;2023-09-30T04:35:38;101669.75;;;12.61;100.00
78144;BME280;67394;52.522;13.622;2023-09-30T04:38:06;101671.47;;;12.61;100.00
78144;BME280;67394;52.522;13.622;2023-09-30T04:40:32;101672.31;;;12.58;100.00
78144;BME280;67394;52.522;13.622;2023-09-30T04:42:59;101668.88;;;12.58;100.00
78144;BME280;67394;52.522;13.622;2023-09-30T04:45:26;101673.22;;;12.65;100.00
78144;BME280;67394;52.522;13.622;2023-09-30T04:47:54;101666.31;;;12.58;100.00
78144;BME280;67394;52.522;13.622;2023-09-30T04:50:22;101661.97;;;12.54;100.00
78144;BME280;67394;52.522;13.622;2023-09-30T04:52:49;101663.69;;;12.52;100.00
78144;BME280;67394;52.522;13.622;2023-09-30T04:55:17;101663.63;;;12.45;100.00
78144;BME280;67394;52.522;13.622;2023-09-30T04:57:47;101676.47;;;12.42;100.00
78144;BME280;67394;52.522;13.622;2023-09-30T05:00:14;101668.75;;;12.42;100.00
78144;BME280;67394;52.522;13.622;2023-09-30T05:02:41;101665.34;;;12.45;100.00
78144;BME280;67394;52.522;13.622;2023-09-30T05:05:08;101669.59;;;12.41;100.00
78144;BME280;67394;52.522;13.622;2023-09-30T05:07:35;101668.72;;;12.36;100.00
78144;BME280;67394;52.522;13.622;2023-09-30T05:10:02;101681.50;;;12.30;100.00
78144;BME280;67394;52.522;13.622;2023-09-30T05:12:29;101679.03;;;12.39;100.00
78144;BME280;67394;52.522;13.622;2023-09-30T05:14:57;101678.06;;;12.31;100.00
78144;BME280;67394;52.522;13.622;2023-09-30T05:17:24;101683.22;;;12.31;100.00
78144;BME280;67394;52.522;13.622;2023-09-30T05:19:50;101690.06;;;12.28;100.00
78144;BME280;67394;52.522;13.622;2023-09-30T05:22:17;101698.63;;;12.28;100.00
78144;BME280;67394;52.522;13.622;2023-09-30T05:24:43;101702.06;;;12.30;100.00
78144;BME280;67394;52.522;13.622;2023-09-30T05:27:10;101702.91;;;12.28;100.00
78144;BME280;67394;52.522;13.622;2023-09-30T05:29:36;101704.59;;;12.26;100.00
78144;BME280;67394;52.522;13.622;2023-09-30T05:32:03;101700.34;;;12.31;100.00
78144;BME280;67394;52.522;13.622;2023-09-30T05:34:30;101706.41;;;12.34;100.00
78144;BME280;67394;52.522;13.622;2023-09-30T05:36:56;101694.34;;;12.29;100.00
78144;BME280;67394;52.522;13.622;2023-09-30T05:39:23;101704.66;;;12.32;100.00
78144;BME280;67394;52.522;13.622;2023-09-30T05:41:50;101715.81;;;12.34;100.00
78144;BME280;67394;52.522;13.622;2023-09-30T05:44:16;101714.09;;;12.33;100.00
78144;BME280;67394;52.522;13.622;2023-09-30T05:46:43;101715.84;;;12.37;100.00
78144;BME280;67394;52.522;13.622;2023-09-30T05:49:10;101720.19;;;12.44;100.00
78144;BME280;67394;52.522;13.622;2023-09-30T05:51:36;101727.97;;;12.49;100.00
78144;BME280;67394;52.522;13.622;2023-09-30T05:54:03;101734.84;;;12.53;100.00
78144;BME280;67394;52.522;13.622;2023-09-30T05:56:30;101732.31;;;12.57;100.00
78144;BME280;67394;52.522;13.622;2023-09-30T05:58:57;101723.78;;;12.60;100.00
78144;BME280;67394;52.522;13.622;2023-09-30T06:01:24;101735.00;;;12.68;100.00
78144;BME280;67394;52.522;13.622;2023-09-30T06:03:51;101737.63;;;12.77;100.00
78144;BME280;67394;52.522;13.622;2023-09-30T06:06:17;101743.69;;;12.80;100.00
78144;BME280;67394;52.522;13.622;2023-09-30T06:08:44;101743.75;;;12.91;100.00
78144;BME280;67394;52.522;13.622;2023-09-30T06:11:18;101751.50;;;12.96;100.00
78144;BME280;67394;52.522;13.622;2023-09-30T06:13:45;101753.28;;;13.03;100.00
78144;BME280;67394;52.522;13.622;2023-09-30T06:16:13;101749.03;;;13.09;100.00
78144;BME280;67394;52.522;13.622;2023-09-30T06:18:39;101746.53;;;13.18;100.00
78144;BME280;67394;52.522;13.622;2023-09-30T06:21:08;101743.16;;;13.26;100.00
78144;BME280;67394;52.522;13.622;2023-09-30T06:23:34;101742.34;;;13.31;100.00
78144;BME280;67394;52.522;13.622;2023-09-30T06:26:01;101748.41;;;13.42;100.00
78144;BME280;67394;52.522;13.622;2023-09-30T06:28:28;101754.47;;;13.52;100.00
78144;BME280;67394;52.522;13.622;2023-09-30T06:30:55;101751.03;;;13.56;100.00
78144;BME280;67394;52.522;13.622;2023-09-30T06:33:21;101754.50;;;13.58;100.00
78144;BME280;67394;52.522;13.622;2023-09-30T06:35:48;101757.06;;;13.56;100.00
78144;BME280;67394;52.522;13.622;2023-09-30T06:38:14;101773.38;;;13.57;100.00
78144;BME280;67394;52.522;13.622;2023-09-30T06:40:41;101770.81;;;13.54;100.00
78144;BME280;67394;52.522;13.622;2023-09-30T06:43:08;101775.13;;;13.61;100.00
78144;BME280;67394;52.522;13.622;2023-09-30T06:45:35;101773.38;;;13.54;100.00
78144;BME280;67394;52.522;13.622;2023-09-30T06:48:02;101771.66;;;13.53;100.00
78144;BME280;67394;52.522;13.622;2023-09-30T06:50:29;101783.63;;;13.48;100.00
78144;BME280;67394;52.522;13.622;2023-09-30T06:52:56;101785.31;;;13.46;100.00
78144;BME280;67394;52.522;13.622;2023-09-30T06:55:22;101789.66;;;13.50;100.00
78144;BME280;67394;52.522;13.622;2023-09-30T06:57:49;101786.22;;;13.48;100.00
78144;BME280;67394;52.522;13.622;2023-09-30T07:00:16;101799.22;;;13.66;100.00
78144;BME280;67394;52.522;13.622;2023-09-30T07:02:42;101791.50;;;13.72;100.00
78144;BME280;67394;52.522;13.622;2023-09-30T07:05:11;101802.66;;;13.71;100.00
78144;BME280;67394;52.522;13.622;2023-09-30T07:07:40;101794.94;;;13.77;100.00
78144;BME280;67394;52.522;13.622;2023-09-30T07:10:07;101807.06;;;13.93;100.00
78144;BME280;67394;52.522;13.622;2023-09-30T07:12:36;101805.38;;;13.96;100.00
78144;BME280;67394;52.522;13.622;2023-09-30T07:15:04;101809.66;;;13.93;100.00
78144;BME280;67394;52.522;13.622;2023-09-30T07:17:34;101808.78;;;13.95;100.00
78144;BME280;67394;52.522;13.622;2023-09-30T07:20:03;101824.28;;;14.04;100.00
78144;BME280;67394;52.522;13.622;2023-09-30T07:22:30;101817.47;;;14.09;100.00
78144;BME280;67394;52.522;13.622;2023-09-30T07:25:12;101818.31;;;14.20;100.00
78144;BME280;67394;52.522;13.622;2023-09-30T07:27:38;101831.28;;;14.27;100.00
78144;BME280;67394;52.522;13.622;2023-09-30T07:30:06;101827.06;;;14.40;100.00
78144;BME280;67394;52.522;13.622;2023-09-30T07:32:32;101828.75;;;14.43;100.00
78144;BME280;67394;52.522;13.622;2023-09-30T07:34:59;101833.09;;;14.51;100.00
78144;BME280;67394;52.522;13.622;2023-09-30T07:37:26;101838.25;;;14.54;100.00
78144;BME280;67394;52.522;13.622;2023-09-30T07:39:53;101843.41;;;14.63;100.00
78144;BME280;67394;52.522;13.622;2023-09-30T07:42:20;101842.59;;;14.72;100.00
78144;BME280;67394;52.522;13.622;2023-09-30T07:44:46;101836.56;;;14.61;100.00
78144;BME280;67394;52.522;13.622;2023-09-30T07:47:13;101839.13;;;14.75;100.00
78144;BME280;67394;52.522;13.622;2023-09-30T07:49:39;101845.19;;;14.71;100.00
78144;BME280;67394;52.522;13.622;2023-09-30T07:52:06;101846.00;;;14.73;100.00
78144;BME280;67394;52.522;13.622;2023-09-30T07:54:32;101842.56;;;14.64;99.56
78144;BME280;67394;52.522;13.622;2023-09-30T07:56:59;101847.72;;;14.66;100.00
78144;BME280;67394;52.522;13.622;2023-09-30T07:59:30;101852.06;;;14.78;100.00
78144;BME280;67394;52.522;13.622;2023-09-30T08:01:56;101855.53;;;14.90;100.00
78144;BME280;67394;52.522;13.622;2023-09-30T08:04:24;101851.19;;;14.70;99.34
78144;BME280;67394;52.522;13.622;2023-09-30T08:06:51;101864.09;;;14.76;99.18
78144;BME280;67394;52.522;13.622;2023-09-30T08:09:17;101869.28;;;14.82;99.87
78144;BME280;67394;52.522;13.622;2023-09-30T08:11:44;101864.97;;;14.78;99.67
78144;BME280;67394;52.522;13.622;2023-09-30T08:14:11;101862.38;;;14.84;99.28
78144;BME280;67394;52.522;13.622;2023-09-30T08:16:37;101864.09;;;14.68;98.68
78144;BME280;67394;52.522;13.622;2023-09-30T08:19:04;101875.28;;;14.76;99.80
78144;BME280;67394;52.522;13.622;2023-09-30T08:21:31;101879.59;;;14.83;99.65
78144;BME280;67394;52.522;13.622;2023-09-30T08:23:58;101876.16;;;14.86;100.00
78144;BME280;67394;52.522;13.622;2023-09-30T08:26:24;101871.00;;;14.96;97.89
78144;BME280;67394;52.522;13.622;2023-09-30T08:28:51;101883.09;;;15.04;98.03
78144;BME280;67394;52.522;13.622;2023-09-30T08:31:18;101883.06;;;15.05;97.14
78144;BME280;67394;52.522;13.622;2023-09-30T08:33:45;101882.22;;;15.12;96.29
78144;BME280;67394;52.522;13.622;2023-09-30T08:36:13;101877.94;;;15.25;96.70
78144;BME280;67394;52.522;13.622;2023-09-30T08:38:41;101882.22;;;15.36;95.14
78144;BME280;67394;52.522;13.622;2023-09-30T08:41:09;101873.63;;;15.44;95.33
78144;BME280;67394;52.522;13.622;2023-09-30T08:43:39;101874.47;;;15.68;95.76
78144;BME280;67394;52.522;13.622;2023-09-30T08:46:07;101876.16;;;15.83;94.59
78144;BME280;67394;52.522;13.622;2023-09-30T08:48:35;101878.69;;;16.07;95.08
78144;BME280;67394;52.522;13.622;2023-09-30T08:51:02;101877.84;;;16.07;91.02
78144;BME280;67394;52.522;13.622;2023-09-30T08:53:29;101876.09;;;16.01;91.66
78144;BME280;67394;52.522;13.622;2023-09-30T08:55:57;101883.91;;;15.94;91.95
78144;BME280;67394;52.522;13.622;2023-09-30T08:58:27;101882.19;;;15.79;91.44
78144;BME280;67394;52.522;13.622;2023-09-30T09:00:55;101877.03;;;15.70;91.54
78144;BME280;67394;52.522;13.622;2023-09-30T09:03:23;101883.06;;;15.89;91.69
78144;BME280;67394;52.522;13.622;2023-09-30T09:05:54;101883.88;;;16.04;90.17
78144;BME280;67394;52.522;13.622;2023-09-30T09:08:22;101882.16;;;15.96;89.54
78144;BME280;67394;52.522;13.622;2023-09-30T09:10:54;101883.06;;;15.89;89.97
78144;BME280;67394;52.522;13.622;2023-09-30T09:13:22;101876.16;;;15.79;90.93
78144;BME280;67394;52.522;13.622;2023-09-30T09:15:48;101884.75;;;15.93;90.83
78144;BME280;67394;52.522;13.622;2023-09-30T09:18:33;101884.72;;;16.05;88.60
78144;BME280;67394;52.522;13.622;2023-09-30T09:21:20;101879.47;;;16.25;88.85
78144;BME280;67394;52.522;13.622;2023-09-30T09:23:50;101878.56;;;16.35;88.03
78144;BME280;67394;52.522;13.622;2023-09-30T09:26:26;101878.56;;;16.38;87.97
78144;BME280;67394;52.522;13.622;2023-09-30T09:29:00;101880.25;;;16.45;86.93
78144;BME280;67394;52.522;13.622;2023-09-30T09:31:37;101887.94;;;16.60;86.97
78144;BME280;67394;52.522;13.622;2023-09-30T09:34:13;101879.34;;;16.63;86.24
78144;BME280;67394;52.522;13.622;2023-09-30T09:36:45;101879.28;;;16.73;86.45
78144;BME280;67394;52.522;13.622;2023-09-30T09:39:12;101882.69;;;16.77;85.31
78144;BME280;67394;52.522;13.622;2023-09-30T09:41:54;101878.34;;;16.83;84.78
78144;BME280;67394;52.522;13.622;2023-09-30T09:44:22;101881.69;;;17.01;83.82
78144;BME280;67394;52.522;13.622;2023-09-30T09:46:49;101885.84;;;17.22;84.05
78144;BME280;67394;52.522;13.622;2023-09-30T09:49:18;101877.13;;;17.27;80.49
78144;BME280;67394;52.522;13.622;2023-09-30T09:51:47;101883.16;;;17.29;80.13
78144;BME280;67394;52.522;13.622;2023-09-30T09:54:15;101873.53;;;17.48;80.13
78144;BME280;67394;52.522;13.622;2023-09-30T09:56:45;101874.50;;;17.36;80.52
78144;BME280;67394;52.522;13.622;2023-09-30T09:59:13;101871.69;;;17.58;82.04
78144;BME280;67394;52.522;13.622;2023-09-30T10:01:42;101878.56;;;17.65;77.94
78144;BME280;67394;52.522;13.622;2023-09-30T10:04:12;101878.50;;;17.69;77.51
78144;BME280;67394;52.522;13.622;2023-09-30T10:06:39;101882.78;;;17.75;76.54
78144;BME280;67394;52.522;13.622;2023-09-30T10:09:09;101882.00;;;17.68;76.84
78144;BME280;67394;52.522;13.622;2023-09-30T10:11:38;101874.22;;;17.62;78.12
78144;BME280;67394;52.522;13.622;2023-09-30T10:14:05;101883.91;;;17.46;74.38
78144;BME280;67394;52.522;13.622;2023-09-30T10:21:39;101869.72;;;17.85;74.77
78144;BME280;67394;52.522;13.622;2023-09-30T10:35:18;101868.72;;;17.97;71.91
78144;BME280;67394;52.522;13.622;2023-09-30T10:37:46;101866.72;;;18.20;71.49
78144;BME280;67394;52.522;13.622;2023-09-30T10:40:30;101865.72;;;18.31;71.56
78144;BME280;67394;52.522;13.622;2023-09-30T10:42:56;101870.75;;;18.41;71.84
78144;BME280;67394;52.522;13.622;2023-09-30T10:45:52;101868.06;;;18.47;69.53
78144;BME280;67394;52.522;13.622;2023-09-30T10:50:56;101873.44;;;18.35;68.40
78144;BME280;67394;52.522;13.622;2023-09-30T10:53:28;101885.75;;;18.19;67.42
78144;BME280;67394;52.522;13.622;2023-09-30T10:55:58;101890.38;;;17.93;67.97
78144;BME280;67394;52.522;13.622;2023-09-30T10:58:51;101894.53;;;18.09;67.70
78144;BME280;67394;52.522;13.622;2023-09-30T11:01:22;101885.25;;;18.56;68.86
78144;BME280;67394;52.522;13.622;2023-09-30T11:03:50;101884.13;;;18.78;64.89
78144;BME280;67394;52.522;13.622;2023-09-30T11:06:20;101881.22;;;18.98;65.03
78144;BME280;67394;52.522;13.622;2023-09-30T11:08:56;101885.63;;;18.94;65.02
78144;BME280;67394;52.522;13.622;2023-09-30T11:11:37;101894.63;;;18.72;64.76
78144;BME280;67394;52.522;13.622;2023-09-30T11:14:20;101881.84;;;18.54;66.12
78144;BME280;67394;52.522;13.622;2023-09-30T11:16:48;101882.06;;;18.36;64.99
78144;BME280;67394;52.522;13.622;2023-09-30T11:19:15;101882.34;;;18.14;62.61
78144;BME280;67394;52.522;13.622;2023-09-30T11:21:43;101884.38;;;18.61;64.75
78144;BME280;67394;52.522;13.622;2023-09-30T11:24:10;101878.22;;;18.65;62.85
78144;BME280;67394;52.522;13.622;2023-09-30T11:26:38;101875.38;;;18.85;64.06
78144;BME280;67394;52.522;13.622;2023-09-30T11:29:10;101874.69;;;19.28;62.48
78144;BME280;67394;52.522;13.622;2023-09-30T11:31:38;101873.28;;;19.07;60.32
78144;BME280;67394;52.522;13.622;2023-09-30T11:34:05;101869.72;;;19.13;59.65
78144;BME280;67394;52.522;13.622;2023-09-30T11:36:35;101871.09;;;19.35;61.05
78144;BME280;67394;52.522;13.622;2023-09-30T11:39:02;101861.06;;;19.63;61.73
78144;BME280;67394;52.522;13.622;2023-09-30T11:41:36;101862.16;;;19.51;59.64
78144;BME280;67394;52.522;13.622;2023-09-30T11:44:10;101859.25;;;19.68;61.39
78144;BME280;67394;52.522;13.622;2023-09-30T11:49:34;101853.22;;;19.66;59.30
78144;BME280;67394;52.522;13.622;2023-09-30T11:52:07;101848.88;;;19.17;60.53
78144;BME280;67394;52.522;13.622;2023-09-30T11:54:39;101846.22;;;19.19;61.81
78144;BME280;67394;52.522;13.622;2023-09-30T11:57:07;101850.75;;;19.08;61.02
78144;BME280;67394;52.522;13.622;2023-09-30T11:59:34;101850.50;;;19.23;60.30
78144;BME280;67394;52.522;13.622;2023-09-30T12:02:01;101849.38;;;19.37;60.65
78144;BME280;67394;52.522;13.622;2023-09-30T12:04:42;101851.06;;;19.40;60.94
78144;BME280;67394;52.522;13.622;2023-09-30T12:07:11;101846.66;;;19.45;62.46
78144;BME280;67394;52.522;13.622;2023-09-30T12:09:38;101851.22;;;19.31;57.30
78144;BME280;67394;52.522;13.622;2023-09-30T12:12:04;101848.72;;;19.25;58.42
78144;BME280;67394;52.522;13.622;2023-09-30T12:14:32;101852.19;;;19.25;57.29
78144;BME280;67394;52.522;13.622;2023-09-30T12:16:58;101843.50;;;19.26;58.68
78144;BME280;67394;52.522;13.622;2023-09-30T12:19:25;101849.69;;;19.18;58.69
78144;BME280;67394;52.522;13.622;2023-09-30T12:21:51;101841.69;;;19.30;59.85
78144;BME280;67394;52.522;13.622;2023-09-30T12:24:18;101845.84;;;19.40;58.02
78144;BME280;67394;52.522;13.622;2023-09-30T12:26:49;101847.34;;;19.56;56.80
78144;BME280;67394;52.522;13.622;2023-09-30T12:29:18;101841.50;;;19.42;56.56
78144;BME280;67394;52.522;13.622;2023-09-30T12:31:45;101838.00;;;19.43;57.81
78144;BME280;67394;52.522;13.622;2023-09-30T12:34:15;101824.94;;;19.48;58.22
78144;BME280;67394;52.522;13.622;2023-09-30T12:36:42;101828.44;;;19.48;58.15
78144;BME280;67394;52.522;13.622;2023-09-30T12:39:10;101834.41;;;19.52;55.98
78144;BME280;67394;52.522;13.622;2023-09-30T12:41:40;101828.91;;;19.68;57.38
78144;BME280;67394;52.522;13.622;2023-09-30T12:44:10;101822.81;;;19.69;57.41
78144;BME280;67394;52.522;13.622;2023-09-30T12:46:39;101821.09;;;19.68;55.71
78144;BME280;67394;52.522;13.622;2023-09-30T12:49:07;101818.47;;;19.70;56.28
78144;BME280;67394;52.522;13.622;2023-09-30T12:51:34;101814.19;;;19.67;55.37
78144;BME280;67394;52.522;13.622;2023-09-30T12:54:01;101819.75;;;19.46;56.06
78144;BME280;67394;52.522;13.622;2023-09-30T12:56:28;101823.69;;;19.70;57.19
78144;BME280;67394;52.522;13.622;2023-09-30T12:58:56;101819.75;;;19.46;56.99